sensor_id;sensor_type;location;lat;lon;timestamp;pressure;altitude;pressure_sealevel;temperature;humidity
51781;BME280;37844;57.126;24.288;2022-10-15T00:00:28;101485.41;;;11.27;100.00
51781;BME280;37844;57.126;24.288;2022-10-15T00:02:53;101477.56;;;11.24;100.00
51781;BME280;37844;57.126;24.288;2022-10-15T00:05:20;101474.94;;;11.21;100.00
51781;BME280;37844;57.126;24.288;2022-10-15T00:07:45;101477.47;;;11.19;100.00
51781;BME280;37844;57.126;24.288;2022-10-15T00:10:11;101475.69;;;11.17;100.00
51781;BME280;37844;57.126;24.288;2022-10-15T00:12:37;101471.22;;;11.10;100.00
51781;BME280;37844;57.126;24.288;2022-10-15T00:15:03;101478.16;;;11.12;100.00
51781;BME280;37844;57.126;24.288;2022-10-15T00:17:29;101469.56;;;11.12;100.00
51781;BME280;37844;57.126;24.288;2022-10-15T00:19:55;101463.50;;;11.10;100.00
51781;BME280;37844;57.126;24.288;2022-10-15T00:22:20;101463.53;;;11.11;100.00
51781;BME280;37844;57.126;24.288;2022-10-15T00:24:46;101471.06;;;11.02;100.00
51781;BME280;37844;57.126;24.288;2022-10-15T00:27:11;101463.28;;;11.00;100.00
51781;BME280;37844;57.126;24.288;2022-10-15T00:29:37;101465.91;;;11.02;100.00
51781;BME280;37844;57.126;24.288;2022-10-15T00:32:02;101464.19;;;11.02;100.00
51781;BME280;37844;57.126;24.288;2022-10-15T00:34:28;101469.25;;;10.98;100.00
51781;BME280;37844;57.126;24.288;2022-10-15T00:36:54;101461.56;;;10.99;100.00
51781;BME280;37844;57.126;24.288;2022-10-15T00:39:19;101459.66;;;10.92;100.00
51781;BME280;37844;57.126;24.288;2022-10-15T00:41:45;101470.03;;;10.95;100.00
51781;BME280;37844;57.126;24.288;2022-10-15T00:46:50;101467.34;;;10.89;100.00
51781;BME280;37844;57.126;24.288;2022-10-15T00:49:26;101457.94;;;10.93;100.00
51781;BME280;37844;57.126;24.288;2022-10-15T00:51:59;101460.44;;;10.88;100.00
51781;BME280;37844;57.126;24.288;2022-10-15T00:54:28;101463.66;;;10.79;100.00
51781;BME280;37844;57.126;24.288;2022-10-15T00:56:55;101456.94;;;10.86;100.00
51781;BME280;37844;57.126;24.288;2022-10-15T00:59:23;101461.00;;;10.76;100.00
51781;BME280;37844;57.126;24.288;2022-10-15T01:01:50;101456.91;;;10.85;100.00
51781;BME280;37844;57.126;24.288;2022-10-15T01:04:16;101455.84;;;10.76;100.00
51781;BME280;37844;57.126;24.288;2022-10-15T01:06:43;101450.84;;;10.82;100.00
51781;BME280;37844;57.126;24.288;2022-10-15T01:09:10;101453.31;;;10.78;100.00
51781;BME280;37844;57.126;24.288;2022-10-15T01:11:40;101443.94;;;10.81;100.00
51781;BME280;37844;57.126;24.288;2022-10-15T01:14:16;101449.19;;;10.85;100.00
51781;BME280;37844;57.126;24.288;2022-10-15T01:30:35;101443.72;;;10.72;100.00
51781;BME280;37844;57.126;24.288;2022-10-15T01:33:11;101441.94;;;10.70;100.00
51781;BME280;37844;57.126;24.288;2022-10-15T01:35:58;101442.09;;;10.76;100.00
51781;BME280;37844;57.126;24.288;2022-10-15T01:38:35;101436.97;;;10.77;100.00
51781;BME280;37844;57.126;24.288;2022-10-15T01:41:13;101427.38;;;10.72;100.00
51781;BME280;37844;57.126;24.288;2022-10-15T01:43:56;101430.00;;;10.73;100.00
51781;BME280;37844;57.126;24.288;2022-10-15T01:46:28;101430.94;;;10.77;100.00
51781;BME280;37844;57.126;24.288;2022-10-15T01:48:57;101420.63;;;10.77;100.00
51781;BME280;37844;57.126;24.288;2022-10-15T01:51:24;101430.06;;;10.76;100.00
51781;BME280;37844;57.126;24.288;2022-10-15T01:53:51;101418.78;;;10.71;100.00
51781;BME280;37844;57.126;24.288;2022-10-15T01:56:20;101421.34;;;10.71;100.00
51781;BME280;37844;57.126;24.288;2022-10-15T01:58:49;101419.69;;;10.73;100.00
51781;BME280;37844;57.126;24.288;2022-10-15T02:01:15;101416.38;;;10.79;100.00
51781;BME280;37844;57.126;24.288;2022-10-15T02:03:49;101418.16;;;10.81;100.00
51781;BME280;37844;57.126;24.288;2022-10-15T02:11:24;101415.66;;;10.86;100.00
51781;BME280;37844;57.126;24.288;2022-10-15T02:13:59;101419.91;;;10.82;100.00
51781;BME280;37844;57.126;24.288;2022-10-15T02:19:37;101415.06;;;10.96;100.00
51781;BME280;37844;57.126;24.288;2022-10-15T02:22:24;101403.94;;;11.00;100.00
51781;BME280;37844;57.126;24.288;2022-10-15T02:24:57;101402.31;;;11.04;100.00
51781;BME280;37844;57.126;24.288;2022-10-15T02:27:27;101415.13;;;10.99;100.00
51781;BME280;37844;57.126;24.288;2022-10-15T02:29:55;101413.47;;;11.03;100.00
51781;BME280;37844;57.126;24.288;2022-10-15T02:32:23;101404.03;;;11.03;100.00
51781;BME280;37844;57.126;24.288;2022-10-15T02:34:49;101401.47;;;11.03;100.00
51781;BME280;37844;57.126;24.288;2022-10-15T02:37:19;101401.56;;;11.08;100.00
51781;BME280;37844;57.126;24.288;2022-10-15T02:39:45;101404.03;;;11.03;100.00
51781;BME280;37844;57.126;24.288;2022-10-15T02:42:11;101405.59;;;10.97;100.00
51781;BME280;37844;57.126;24.288;2022-10-15T02:44:36;101396.19;;;10.99;100.00
51781;BME280;37844;57.126;24.288;2022-10-15T02:47:02;101396.22;;;11.00;100.00
51781;BME280;37844;57.126;24.288;2022-10-15T02:49:27;101387.75;;;11.06;100.00
51781;BME280;37844;57.126;24.288;2022-10-15T02:51:52;101394.59;;;11.06;100.00
51781;BME280;37844;57.126;24.288;2022-10-15T02:54:18;101387.75;;;11.06;100.00
51781;BME280;37844;57.126;24.288;2022-10-15T02:56:43;101395.38;;;11.01;100.00
51781;BME280;37844;57.126;24.288;2022-10-15T02:59:09;101391.97;;;11.02;100.00
51781;BME280;37844;57.126;24.288;2022-10-15T03:01:34;101388.56;;;11.05;100.00
51781;BME280;37844;57.126;24.288;2022-10-15T03:04:00;101388.66;;;11.08;100.00
51781;BME280;37844;57.126;24.288;2022-10-15T03:06:26;101392.09;;;11.09;100.00
51781;BME280;37844;57.126;24.288;2022-10-15T03:08:51;101390.31;;;11.06;100.00
51781;BME280;37844;57.126;24.288;2022-10-15T03:11:17;101387.00;;;11.12;100.00
51781;BME280;37844;57.126;24.288;2022-10-15T03:13:42;101389.56;;;11.12;100.00
51781;BME280;37844;57.126;24.288;2022-10-15T03:16:09;101381.88;;;11.13;100.00
51781;BME280;37844;57.126;24.288;2022-10-15T03:18:35;101386.16;;;11.13;100.00
51781;BME280;37844;57.126;24.288;2022-10-15T03:21:01;101389.72;;;11.18;100.00
51781;BME280;37844;57.126;24.288;2022-10-15T03:23:27;101388.00;;;11.20;100.00
51781;BME280;37844;57.126;24.288;2022-10-15T03:25:53;101390.53;;;11.17;100.00
51781;BME280;37844;57.126;24.288;2022-10-15T03:28:19;101396.66;;;11.20;100.00
51781;BME280;37844;57.126;24.288;2022-10-15T03:30:45;101391.34;;;11.14;100.00
51781;BME280;37844;57.126;24.288;2022-10-15T03:33:11;101392.31;;;11.18;100.00
51781;BME280;37844;57.126;24.288;2022-10-15T03:35:37;101391.44;;;11.19;100.00
51781;BME280;37844;57.126;24.288;2022-10-15T03:38:03;101391.41;;;11.17;100.00
51781;BME280;37844;57.126;24.288;2022-10-15T03:40:29;101396.69;;;11.23;100.00
51781;BME280;37844;57.126;24.288;2022-10-15T03:42:54;101401.09;;;11.29;100.00
51781;BME280;37844;57.126;24.288;2022-10-15T03:45:21;101396.91;;;11.33;100.00
51781;BME280;37844;57.126;24.288;2022-10-15T03:47:47;101400.31;;;11.32;100.00
51781;BME280;37844;57.126;24.288;2022-10-15T03:50:13;101401.28;;;11.37;100.00
51781;BME280;37844;57.126;24.288;2022-10-15T03:52:39;101404.72;;;11.37;100.00
51781;BME280;37844;57.126;24.288;2022-10-15T03:55:05;101399.59;;;11.39;100.00
51781;BME280;37844;57.126;24.288;2022-10-15T03:57:31;101405.66;;;11.41;100.00
51781;BME280;37844;57.126;24.288;2022-10-15T03:59:56;101400.47;;;11.39;100.00
51781;BME280;37844;57.126;24.288;2022-10-15T04:02:22;101401.38;;;11.41;100.00
51781;BME280;37844;57.126;24.288;2022-10-15T04:04:50;101406.56;;;11.43;100.00
51781;BME280;37844;57.126;24.288;2022-10-15T04:07:17;101404.84;;;11.42;100.00
51781;BME280;37844;57.126;24.288;2022-10-15T04:09:42;101415.97;;;11.41;100.00
51781;BME280;37844;57.126;24.288;2022-10-15T04:12:08;101408.28;;;11.42;100.00
51781;BME280;37844;57.126;24.288;2022-10-15T04:14:33;101407.50;;;11.46;100.00
51781;BME280;37844;57.126;24.288;2022-10-15T04:16:58;101398.91;;;11.48;100.00
51781;BME280;37844;57.126;24.288;2022-10-15T04:19:24;101409.22;;;11.48;100.00
51781;BME280;37844;57.126;24.288;2022-10-15T04:21:49;101408.41;;;11.50;100.00
51781;BME280;37844;57.126;24.288;2022-10-15T04:24:15;101404.09;;;11.49;100.00
51781;BME280;37844;57.126;24.288;2022-10-15T04:26:40;101406.78;;;11.54;100.00
51781;BME280;37844;57.126;24.288;2022-10-15T04:29:06;101405.00;;;11.51;100.00
51781;BME280;37844;57.126;24.288;2022-10-15T04:31:31;101382.47;;;11.42;100.00
51781;BME280;37844;57.126;24.288;2022-10-15T04:33:57;101400.72;;;11.52;100.00
51781;BME280;37844;57.126;24.288;2022-10-15T04:36:23;101403.25;;;11.49;100.00
51781;BME280;37844;57.126;24.288;2022-10-15T04:38:48;101392.13;;;11.53;100.00
51781;BME280;37844;57.126;24.288;2022-10-15T04:41:13;101391.19;;;11.49;100.00
51781;BME280;37844;57.126;24.288;2022-10-15T04:43:39;101401.63;;;11.54;100.00
51781;BME280;37844;57.126;24.288;2022-10-15T04:46:06;101399.03;;;11.54;100.00
51781;BME280;37844;57.126;24.288;2022-10-15T04:48:33;101394.78;;;11.56;100.00
51781;BME280;37844;57.126;24.288;2022-10-15T04:51:14;101397.38;;;11.56;100.00
51781;BME280;37844;57.126;24.288;2022-10-15T04:53:40;101401.63;;;11.55;100.00
51781;BME280;37844;57.126;24.288;2022-10-15T04:56:07;101397.38;;;11.56;100.00
51781;BME280;37844;57.126;24.288;2022-10-15T04:58:34;101402.44;;;11.51;100.00
51781;BME280;37844;57.126;24.288;2022-10-15T05:01:08;101390.19;;;11.42;100.00
51781;BME280;37844;57.126;24.288;2022-10-15T05:03:37;101394.47;;;11.40;100.00
51781;BME280;37844;57.126;24.288;2022-10-15T05:06:04;101383.28;;;11.40;100.00
51781;BME280;37844;57.126;24.288;2022-10-15T05:08:31;101386.72;;;11.40;100.00
51781;BME280;37844;57.126;24.288;2022-10-15T05:11:04;101392.78;;;11.42;100.00
51781;BME280;37844;57.126;24.288;2022-10-15T05:13:30;101388.47;;;11.41;100.00
51781;BME280;37844;57.126;24.288;2022-10-15T05:15:56;101388.47;;;11.41;100.00
51781;BME280;37844;57.126;24.288;2022-10-15T05:18:22;101395.38;;;11.42;100.00
51781;BME280;37844;57.126;24.288;2022-10-15T05:20:47;101391.94;;;11.43;100.00
51781;BME280;37844;57.126;24.288;2022-10-15T05:23:13;101391.06;;;11.41;100.00
51781;BME280;37844;57.126;24.288;2022-10-15T05:25:38;101396.22;;;11.43;100.00
51781;BME280;37844;57.126;24.288;2022-10-15T05:28:04;101389.34;;;11.42;100.00
51781;BME280;37844;57.126;24.288;2022-10-15T05:30:30;101386.69;;;11.39;100.00
51781;BME280;37844;57.126;24.288;2022-10-15T05:32:55;101380.59;;;11.35;100.00
51781;BME280;37844;57.126;24.288;2022-10-15T05:35:21;101383.28;;;11.40;100.00
51781;BME280;37844;57.126;24.288;2022-10-15T05:37:48;101382.41;;;11.41;100.00
51781;BME280;37844;57.126;24.288;2022-10-15T05:40:13;101384.09;;;11.37;100.00
51781;BME280;37844;57.126;24.288;2022-10-15T05:42:39;101391.84;;;11.39;100.00
51781;BME280;37844;57.126;24.288;2022-10-15T05:45:05;101391.06;;;11.41;100.00
51781;BME280;37844;57.126;24.288;2022-10-15T05:47:30;101386.72;;;11.40;100.00
51781;BME280;37844;57.126;24.288;2022-10-15T05:49:56;101379.84;;;11.41;100.00
51781;BME280;37844;57.126;24.288;2022-10-15T05:52:21;101378.94;;;11.39;100.00
51781;BME280;37844;57.126;24.288;2022-10-15T05:54:47;101389.34;;;11.42;100.00
51781;BME280;37844;57.126;24.288;2022-10-15T05:57:12;101380.66;;;11.38;100.00
51781;BME280;37844;57.126;24.288;2022-10-15T05:59:37;101380.72;;;11.41;100.00
51781;BME280;37844;57.126;24.288;2022-10-15T06:02:03;101385.09;;;11.44;100.00
51781;BME280;37844;57.126;24.288;2022-10-15T06:04:28;101379.84;;;11.41;100.00
51781;BME280;37844;57.126;24.288;2022-10-15T06:06:56;101375.56;;;11.41;100.00
51781;BME280;37844;57.126;24.288;2022-10-15T06:09:21;101371.28;;;11.43;100.00
51781;BME280;37844;57.126;24.288;2022-10-15T06:11:47;101382.56;;;11.47;100.00
51781;BME280;37844;57.126;24.288;2022-10-15T06:14:12;101378.16;;;11.43;100.00
51781;BME280;37844;57.126;24.288;2022-10-15T06:16:38;101379.88;;;11.42;100.00
51781;BME280;37844;57.126;24.288;2022-10-15T06:19:03;101383.38;;;11.44;100.00
51781;BME280;37844;57.126;24.288;2022-10-15T06:21:29;101397.13;;;11.45;100.00
51781;BME280;37844;57.126;24.288;2022-10-15T06:23:55;101391.06;;;11.41;100.00
51781;BME280;37844;57.126;24.288;2022-10-15T06:26:20;101382.38;;;11.38;100.00
51781;BME280;37844;57.126;24.288;2022-10-15T06:28:46;101387.66;;;11.45;100.00
51781;BME280;37844;57.126;24.288;2022-10-15T06:31:11;101393.03;;;11.55;100.00
51781;BME280;37844;57.126;24.288;2022-10-15T06:33:39;101388.94;;;11.66;100.00
51781;BME280;37844;57.126;24.288;2022-10-15T06:36:07;101391.81;;;11.83;100.00
51781;BME280;37844;57.126;24.288;2022-10-15T06:38:33;101400.59;;;11.91;100.00
51781;BME280;37844;57.126;24.288;2022-10-15T06:40:59;101389.78;;;12.11;100.00
51781;BME280;37844;57.126;24.288;2022-10-15T06:43:24;101395.03;;;12.17;100.00
51781;BME280;37844;57.126;24.288;2022-10-15T06:45:50;101393.47;;;12.26;100.00
51781;BME280;37844;57.126;24.288;2022-10-15T06:48:16;101390.22;;;12.38;100.00
51781;BME280;37844;57.126;24.288;2022-10-15T06:50:41;101398.09;;;12.46;100.00
51781;BME280;37844;57.126;24.288;2022-10-15T06:53:07;101382.66;;;12.50;100.00
51781;BME280;37844;57.126;24.288;2022-10-15T06:55:33;101388.03;;;12.63;100.00
51781;BME280;37844;57.126;24.288;2022-10-15T06:57:58;101370.91;;;12.74;100.00
51781;BME280;37844;57.126;24.288;2022-10-15T07:00:24;101371.84;;;12.78;100.00
51781;BME280;37844;57.126;24.288;2022-10-15T07:02:50;101383.22;;;12.90;100.00
51781;BME280;37844;57.126;24.288;2022-10-15T07:05:16;101377.38;;;13.04;100.00
51781;BME280;37844;57.126;24.288;2022-10-15T07:07:42;101377.41;;;13.05;100.00
51781;BME280;37844;57.126;24.288;2022-10-15T07:10:07;101370.66;;;13.18;100.00
51781;BME280;37844;57.126;24.288;2022-10-15T07:12:34;101378.63;;;13.32;100.00
51781;BME280;37844;57.126;24.288;2022-10-15T07:14:59;101373.59;;;13.46;100.00
51781;BME280;37844;57.126;24.288;2022-10-15T07:17:25;101381.53;;;13.60;100.00
51781;BME280;37844;57.126;24.288;2022-10-15T07:19:50;101380.69;;;13.64;100.00
51781;BME280;37844;57.126;24.288;2022-10-15T07:22:16;101373.88;;;13.72;100.00
51781;BME280;37844;57.126;24.288;2022-10-15T07:24:41;101379.19;;;13.86;100.00
51781;BME280;37844;57.126;24.288;2022-10-15T07:27:06;101391.16;;;13.73;100.00
51781;BME280;37844;57.126;24.288;2022-10-15T07:29:32;101378.16;;;13.71;100.00
51781;BME280;37844;57.126;24.288;2022-10-15T07:31:57;101393.53;;;13.54;100.00
51781;BME280;37844;57.126;24.288;2022-10-15T07:34:24;101382.03;;;13.31;100.00
51781;BME280;37844;57.126;24.288;2022-10-15T07:36:49;101384.38;;;13.14;100.00
51781;BME280;37844;57.126;24.288;2022-10-15T07:39:14;101393.06;;;13.14;100.00
51781;BME280;37844;57.126;24.288;2022-10-15T07:41:43;101380.91;;;13.12;100.00
51781;BME280;37844;57.126;24.288;2022-10-15T07:44:08;101387.81;;;13.10;100.00
51781;BME280;37844;57.126;24.288;2022-10-15T07:46:34;101388.41;;;12.92;100.00
51781;BME280;37844;57.126;24.288;2022-10-15T07:48:59;101379.84;;;12.96;100.00
51781;BME280;37844;57.126;24.288;2022-10-15T07:51:25;101381.63;;;13.00;100.00
51781;BME280;37844;57.126;24.288;2022-10-15T07:53:50;101390.31;;;13.04;100.00
51781;BME280;37844;57.126;24.288;2022-10-15T07:56:16;101396.38;;;13.06;100.00
51781;BME280;37844;57.126;24.288;2022-10-15T07:58:42;101385.09;;;13.01;100.00
51781;BME280;37844;57.126;24.288;2022-10-15T08:01:15;101389.28;;;12.92;100.00
51781;BME280;37844;57.126;24.288;2022-10-15T08:03:54;101379.81;;;12.94;100.00
51781;BME280;37844;57.126;24.288;2022-10-15T08:06:19;101391.97;;;12.99;100.00
51781;BME280;37844;57.126;24.288;2022-10-15T08:08:45;101379.97;;;13.07;100.00
51781;BME280;37844;57.126;24.288;2022-10-15T08:11:14;101367.94;;;13.09;100.00
51781;BME280;37844;57.126;24.288;2022-10-15T08:13:41;101379.25;;;13.15;100.00
51781;BME280;37844;57.126;24.288;2022-10-15T08:16:08;101373.28;;;14.00;100.00
51781;BME280;37844;57.126;24.288;2022-10-15T08:18:34;101369.53;;;14.78;100.00
51781;BME280;37844;57.126;24.288;2022-10-15T08:21:00;101370.56;;;15.14;100.00
51781;BME280;37844;57.126;24.288;2022-10-15T08:23:27;101383.50;;;15.01;100.00
51781;BME280;37844;57.126;24.288;2022-10-15T08:25:52;101375.75;;;15.04;100.00
51781;BME280;37844;57.126;24.288;2022-10-15T08:28:18;101372.25;;;14.99;100.00
51781;BME280;37844;57.126;24.288;2022-10-15T08:30:43;101375.69;;;14.94;100.00
51781;BME280;37844;57.126;24.288;2022-10-15T08:33:09;101380.03;;;14.98;100.00
51781;BME280;37844;57.126;24.288;2022-10-15T08:35:34;101372.22;;;14.92;100.00
51781;BME280;37844;57.126;24.288;2022-10-15T08:38:03;101374.03;;;15.10;100.00
51781;BME280;37844;57.126;24.288;2022-10-15T08:40:29;101374.03;;;15.11;100.00
51781;BME280;37844;57.126;24.288;2022-10-15T08:42:54;101362.84;;;15.24;100.00
51781;BME280;37844;57.126;24.288;2022-10-15T08:45:41;101368.09;;;15.44;100.00
51781;BME280;37844;57.126;24.288;2022-10-15T08:48:17;101375.91;;;15.47;100.00
51781;BME280;37844;57.126;24.288;2022-10-15T08:53:25;101369.88;;;15.67;100.00
51781;BME280;37844;57.126;24.288;2022-10-15T08:55:54;101363.84;;;15.73;100.00
51781;BME280;37844;57.126;24.288;2022-10-15T09:01:00;101378.59;;;15.97;100.00
51781;BME280;37844;57.126;24.288;2022-10-15T09:06:23;101389.03;;;16.41;100.00
51781;BME280;37844;57.126;24.288;2022-10-15T09:14:32;101394.22;;;16.46;100.00
51781;BME280;37844;57.126;24.288;2022-10-15T09:20:04;101388.84;;;17.30;100.00
51781;BME280;37844;57.126;24.288;2022-10-15T09:22:33;101386.25;;;18.52;98.61
51781;BME280;37844;57.126;24.288;2022-10-15T09:25:12;101397.13;;;19.68;94.13
51781;BME280;37844;57.126;24.288;2022-10-15T09:27:38;101381.53;;;20.69;90.28
51781;BME280;37844;57.126;24.288;2022-10-15T09:32:37;101375.94;;;21.28;85.18
51781;BME280;37844;57.126;24.288;2022-10-15T09:40:26;101411.84;;;22.06;77.49
51781;BME280;37844;57.126;24.288;2022-10-15T09:42:56;101385.97;;;21.09;76.35
51781;BME280;37844;57.126;24.288;2022-10-15T09:45:22;101392.81;;;21.96;74.72
51781;BME280;37844;57.126;24.288;2022-10-15T09:47:56;101387.16;;;22.49;73.12
51781;BME280;37844;57.126;24.288;2022-10-15T09:50:22;101384.13;;;22.64;71.35
51781;BME280;37844;57.126;24.288;2022-10-15T09:55:50;101385.28;;;23.46;67.82
51781;BME280;37844;57.126;24.288;2022-10-15T09:58:25;101377.31;;;22.88;66.52
51781;BME280;37844;57.126;24.288;2022-10-15T10:03:22;101404.56;;;22.17;66.06
51781;BME280;37844;57.126;24.288;2022-10-15T10:05:50;101410.28;;;21.97;65.96
51781;BME280;37844;57.126;24.288;2022-10-15T10:08:24;101403.09;;;21.26;65.61
51781;BME280;37844;57.126;24.288;2022-10-15T10:10:56;101410.66;;;20.49;67.06
51781;BME280;37844;57.126;24.288;2022-10-15T10:13:31;101407.66;;;19.59;68.31
51781;BME280;37844;57.126;24.288;2022-10-15T10:16:03;101399.75;;;18.97;70.30
51781;BME280;37844;57.126;24.288;2022-10-15T10:18:29;101404.53;;;18.54;71.90
51781;BME280;37844;57.126;24.288;2022-10-15T10:21:02;101426.59;;;18.14;73.53
51781;BME280;37844;57.126;24.288;2022-10-15T10:25:57;101408.78;;;17.34;77.44
51781;BME280;37844;57.126;24.288;2022-10-15T10:28:50;101419.31;;;17.05;79.40
51781;BME280;37844;57.126;24.288;2022-10-15T10:31:17;101421.09;;;16.91;81.21
51781;BME280;37844;57.126;24.288;2022-10-15T10:33:51;101415.91;;;16.85;82.02
51781;BME280;37844;57.126;24.288;2022-10-15T10:36:30;101404.63;;;16.61;82.58
51781;BME280;37844;57.126;24.288;2022-10-15T10:41:58;101418.53;;;16.14;86.03
51781;BME280;37844;57.126;24.288;2022-10-15T10:47:13;101412.41;;;15.86;88.41
51781;BME280;37844;57.126;24.288;2022-10-15T10:52:32;101413.16;;;15.48;90.03
51781;BME280;37844;57.126;24.288;2022-10-15T10:55:02;101434.75;;;15.33;91.76
51781;BME280;37844;57.126;24.288;2022-10-15T10:57:38;101427.72;;;15.18;92.65
51781;BME280;37844;57.126;24.288;2022-10-15T11:00:06;101420.78;;;15.16;94.37
51781;BME280;37844;57.126;24.288;2022-10-15T11:02:35;101429.38;;;14.98;94.69
51781;BME280;37844;57.126;24.288;2022-10-15T11:05:05;101434.50;;;14.89;96.18
51781;BME280;37844;57.126;24.288;2022-10-15T11:07:39;101443.94;;;14.74;97.40
51781;BME280;37844;57.126;24.288;2022-10-15T11:15:29;101414.25;;;14.45;100.00
51781;BME280;37844;57.126;24.288;2022-10-15T11:29:12;101413.00;;;13.99;100.00
51781;BME280;37844;57.126;24.288;2022-10-15T11:38:04;101421.44;;;13.80;100.00
51781;BME280;37844;57.126;24.288;2022-10-15T11:51:40;101410.66;;;13.42;100.00
51781;BME280;37844;57.126;24.288;2022-10-15T11:54:55;101411.59;;;13.47;100.00
51781;BME280;37844;57.126;24.288;2022-10-15T11:57:18;101421.00;;;13.40;100.00
51781;BME280;37844;57.126;24.288;2022-10-15T11:59:46;101420.06;;;13.35;100.00
51781;BME280;37844;57.126;24.288;2022-10-15T12:02:18;101410.56;;;13.34;100.00
51781;BME280;37844;57.126;24.288;2022-10-15T12:04:52;101420.00;;;13.29;100.00
51781;BME280;37844;57.126;24.288;2022-10-15T12:07:27;101407.84;;;13.26;100.00
51781;BME280;37844;57.126;24.288;2022-10-15T12:10:02;101404.38;;;13.26;100.00
51781;BME280;37844;57.126;24.288;2022-10-15T12:20:40;101413.78;;;13.19;100.00
51781;BME280;37844;57.126;24.288;2022-10-15T12:23:21;101422.38;;;13.16;100.00
51781;BME280;37844;57.126;24.288;2022-10-15T12:25:48;101402.56;;;13.17;100.00
51781;BME280;37844;57.126;24.288;2022-10-15T12:28:21;101398.16;;;13.10;100.00
51781;BME280;37844;57.126;24.288;2022-10-15T12:31:00;101406.78;;;13.10;100.00
51781;BME280;37844;57.126;24.288;2022-10-15T12:33:38;101373.81;;;12.96;100.00
51781;BME280;37844;57.126;24.288;2022-10-15T12:41:54;101395.41;;;12.99;100.00
51781;BME280;37844;57.126;24.288;2022-10-15T12:44:23;101388.53;;;13.00;100.00
51781;BME280;37844;57.126;24.288;2022-10-15T12:46:56;101391.06;;;12.97;100.00
51781;BME280;37844;57.126;24.288;2022-10-15T12:51:55;101392.03;;;13.03;100.00
51781;BME280;37844;57.126;24.288;2022-10-15T12:54:36;101395.44;;;13.01;100.00
51781;BME280;37844;57.126;24.288;2022-10-15T12:57:49;101400.72;;;13.08;100.00
51781;BME280;37844;57.126;24.288;2022-10-15T12:59:53;101379.94;;;13.02;100.00
51781;BME280;37844;57.126;24.288;2022-10-15T13:02:34;101396.41;;;13.09;100.00
51781;BME280;37844;57.126;24.288;2022-10-15T13:05:00;101393.03;;;13.13;100.00
51781;BME280;37844;57.126;24.288;2022-10-15T13:07:26;101385.31;;;13.18;100.00
51781;BME280;37844;57.126;24.288;2022-10-15T13:09:52;101387.94;;;13.21;100.00
51781;BME280;37844;57.126;24.288;2022-10-15T13:12:25;101393.97;;;13.21;100.00
51781;BME280;37844;57.126;24.288;2022-10-15T13:14:59;101386.25;;;13.26;100.00
51781;BME280;37844;57.126;24.288;2022-10-15T13:17:28;101372.56;;;13.31;100.00
51781;BME280;37844;57.126;24.288;2022-10-15T13:22:31;101374.38;;;13.40;100.00
51781;BME280;37844;57.126;24.288;2022-10-15T13:24:57;101382.19;;;13.45;100.00
51781;BME280;37844;57.126;24.288;2022-10-15T13:27:26;101373.63;;;13.49;100.00
51781;BME280;37844;57.126;24.288;2022-10-15T13:32:28;101377.16;;;13.57;100.00
51781;BME280;37844;57.126;24.288;2022-10-15T13:34:56;101371.09;;;13.56;100.00
51781;BME280;37844;57.126;24.288;2022-10-15T13:37:28;101370.28;;;13.59;100.00
51781;BME280;37844;57.126;24.288;2022-10-15T13:39:55;101371.16;;;13.60;100.00
51781;BME280;37844;57.126;24.288;2022-10-15T13:42:22;101371.13;;;13.55;100.00
51781;BME280;37844;57.126;24.288;2022-10-15T13:52:40;101358.94;;;13.48;100.00
51781;BME280;37844;57.126;24.288;2022-10-15T13:55:27;101350.25;;;13.44;100.00
51781;BME280;37844;57.126;24.288;2022-10-15T13:58:02;101345.13;;;13.49;100.00
51781;BME280;37844;57.126;24.288;2022-10-15T14:00:31;101359.84;;;13.54;100.00
51781;BME280;37844;57.126;24.288;2022-10-15T14:03:18;101349.44;;;13.50;100.00
51781;BME280;37844;57.126;24.288;2022-10-15T14:05:46;101352.13;;;13.56;100.00
51781;BME280;37844;57.126;24.288;2022-10-15T14:08:35;101341.72;;;13.53;100.00
51781;BME280;37844;57.126;24.288;2022-10-15T14:11:01;101337.44;;;13.55;100.00
51781;BME280;37844;57.126;24.288;2022-10-15T14:13:27;101333.13;;;13.57;100.00
51781;BME280;37844;57.126;24.288;2022-10-15T14:16:44;101333.19;;;13.63;100.00
51781;BME280;37844;57.126;24.288;2022-10-15T14:18:45;101340.06;;;13.61;100.00
51781;BME280;37844;57.126;24.288;2022-10-15T14:21:12;101340.91;;;13.58;100.00
51781;BME280;37844;57.126;24.288;2022-10-15T14:23:39;101333.16;;;13.62;100.00
51781;BME280;37844;57.126;24.288;2022-10-15T14:26:06;101324.56;;;13.63;100.00
51781;BME280;37844;57.126;24.288;2022-10-15T14:28:32;101320.22;;;13.62;100.00
51781;BME280;37844;57.126;24.288;2022-10-15T14:31:00;101321.94;;;13.60;100.00
51781;BME280;37844;57.126;24.288;2022-10-15T14:33:30;101319.41;;;13.66;100.00
51781;BME280;37844;57.126;24.288;2022-10-15T14:38:36;101325.38;;;13.58;100.00
51781;BME280;37844;57.126;24.288;2022-10-15T14:41:05;101327.94;;;13.57;100.00
51781;BME280;37844;57.126;24.288;2022-10-15T14:43:36;101322.75;;;13.57;100.00
51781;BME280;37844;57.126;24.288;2022-10-15T14:46:07;101322.81;;;13.60;100.00
51781;BME280;37844;57.126;24.288;2022-10-15T14:48:38;101334.84;;;13.56;100.00